createdAt,value
2022-09-09T00:02:14.169Z,89824.06
2022-09-09T00:04:42.478Z,89822.59
2022-09-09T00:07:22.896Z,89817.63
2022-09-09T00:10:10.047Z,89819.06
2022-09-09T00:12:40.963Z,89824.47
2022-09-09T00:15:19.324Z,89824.69
2022-09-09T00:17:48.840Z,89829.88
2022-09-09T00:20:37.457Z,89833.09
2022-09-09T00:23:15.575Z,89823.53
2022-09-09T00:25:58.141Z,89826.97
2022-09-09T00:28:28.336Z,89826.31
2022-09-09T00:30:56.861Z,89837.09
2022-09-09T00:33:28.281Z,89835.66
2022-09-09T00:35:59.388Z,89830.53
2022-09-09T00:38:40.761Z,89835.00
2022-09-09T00:41:33.317Z,89842.84
2022-09-09T00:44:34.838Z,89840.97
2022-09-09T00:47:01.496Z,89843.47
2022-09-09T00:49:41.042Z,89840.53
2022-09-09T00:52:25.981Z,89834.41
2022-09-09T00:55:01.763Z,89835.44
2022-09-09T00:57:34.561Z,89847.25
2022-09-09T01:00:20.466Z,89846.81
2022-09-09T01:02:53.255Z,89854.69
2022-09-09T01:06:01.337Z,89852.50
2022-09-09T01:08:39.976Z,89856.25
2022-09-09T01:11:13.523Z,89857.03
2022-09-09T01:13:43.577Z,89855.78
2022-09-09T01:16:12.718Z,89874.66
2022-09-09T01:18:47.932Z,89873.94
2022-09-09T01:21:46.728Z,89874.97
2022-09-09T01:24:36.406Z,89870.09
2022-09-09T01:27:06.894Z,89872.78
2022-09-09T01:29:34.231Z,89870.56
2022-09-09T01:32:22.015Z,89868.19
2022-09-09T01:34:48.806Z,89864.75
2022-09-09T01:37:15.531Z,89875.53
2022-09-09T01:39:45.911Z,89865.03
2022-09-09T01:42:16.063Z,89866.06
2022-09-09T01:44:42.831Z,89868.97
2022-09-09T01:47:10.711Z,89861.41
2022-09-09T01:49:37.517Z,89872.91
2022-09-09T01:52:04.454Z,89870.22
2022-09-09T01:54:33.967Z,89866.06
2022-09-09T01:57:00.644Z,89864.81
2022-09-09T01:59:58.392Z,89867.31
2022-09-09T02:02:31.521Z,89860.00
2022-09-09T02:05:12.894Z,89868.91
2022-09-09T02:07:43.092Z,89874.81
2022-09-09T02:10:23.454Z,89868.75
2022-09-09T02:12:56.922Z,89864.38
2022-09-09T02:15:31.617Z,89868.78
2022-09-09T02:17:59.736Z,89871.06
2022-09-09T02:20:30.553Z,89873.75
2022-09-09T02:23:01.294Z,89872.31
2022-09-09T02:25:30.026Z,89872.31
2022-09-09T02:27:58.249Z,89881.63
2022-09-09T02:30:25.550Z,89881.41
2022-09-09T02:32:55.499Z,89877.97
2022-09-09T02:35:25.035Z,89878.25
2022-09-09T02:37:54.848Z,89882.69
2022-09-09T02:40:21.654Z,89880.25
2022-09-09T02:42:49.932Z,89885.19
2022-09-09T02:45:22.198Z,89884.72
2022-09-09T02:48:12.546Z,89882.84
2022-09-09T02:50:56.079Z,89894.63
2022-09-09T02:53:49.092Z,89897.59
2022-09-09T02:56:23.150Z,89903.47
2022-09-09T02:58:50.389Z,89901.81
2022-09-09T03:01:17.192Z,89905.94
2022-09-09T03:03:44.042Z,89909.63
2022-09-09T03:06:11.289Z,89914.81
2022-09-09T03:08:38.183Z,89910.66
2022-09-09T03:11:05.638Z,89911.16
2022-09-09T03:13:32.351Z,89910.44
2022-09-09T03:15:59.110Z,89917.06
2022-09-09T03:18:26.228Z,89912.66
2022-09-09T03:20:52.940Z,89920.00
2022-09-09T03:23:19.713Z,89913.44
2022-09-09T03:25:53.011Z,89924.22
2022-09-09T03:28:20.075Z,89922.53
2022-09-09T03:30:46.927Z,89922.28
2022-09-09T03:33:13.713Z,89912.75
2022-09-09T03:35:40.437Z,89923.03
2022-09-09T03:38:07.158Z,89916.41
2022-09-09T03:40:34.068Z,89914.47
2022-09-09T03:43:01.235Z,89921.31
2022-09-09T03:45:27.982Z,89920.50
2022-09-09T03:47:54.898Z,89922.66
2022-09-09T03:50:21.693Z,89932.66
2022-09-09T03:52:48.454Z,89935.78
2022-09-09T03:55:15.488Z,89938.16
2022-09-09T03:57:42.184Z,89934.88
2022-09-09T04:00:09.634Z,89932.53
2022-09-09T04:02:36.625Z,89933.38
2022-09-09T04:05:03.468Z,89940.50
2022-09-09T04:07:30.280Z,89936.47
2022-09-09T04:09:57.097Z,89932.97
2022-09-09T04:12:23.840Z,89942.41
2022-09-09T04:14:50.602Z,89952.00
2022-09-09T04:17:17.433Z,89948.38
2022-09-09T04:19:44.271Z,89944.94
2022-09-09T04:22:11.068Z,89951.56
2022-09-09T04:24:37.799Z,89943.84
2022-09-09T04:27:04.608Z,89949.66
2022-09-09T04:29:31.357Z,89956.44
2022-09-09T04:31:58.292Z,89954.91
2022-09-09T04:34:25.020Z,89954.09
2022-09-09T04:36:51.737Z,89955.44
2022-09-09T04:39:18.816Z,89960.75
2022-09-09T04:41:45.667Z,89954.47
2022-09-09T04:44:12.430Z,89960.28
2022-09-09T04:46:39.263Z,89963.13
2022-09-09T04:49:05.990Z,89956.63
2022-09-09T04:51:32.746Z,89961.50
2022-09-09T04:53:59.821Z,89960.59
2022-09-09T04:56:26.567Z,89959.47
2022-09-09T04:58:53.757Z,89957.06
2022-09-09T05:01:22.443Z,89957.16
2022-09-09T05:03:49.432Z,89955.50
2022-09-09T05:06:18.909Z,89962.84
2022-09-09T05:08:46.219Z,89957.28
2022-09-09T05:11:30.734Z,89947.97
2022-09-09T05:13:57.606Z,89946.59
2022-09-09T05:16:24.893Z,89949.56
2022-09-09T05:18:51.872Z,89940.72
2022-09-09T05:21:20.802Z,89937.34
2022-09-09T05:23:48.015Z,89932.81
2022-09-09T05:26:18.097Z,89939.34
2022-09-09T05:28:45.899Z,89936.31
2022-09-09T05:31:14.093Z,89934.72
2022-09-09T05:33:45.786Z,89938.50
2022-09-09T05:36:14.956Z,89936.91
2022-09-09T05:38:42.462Z,89943.78
2022-09-09T05:41:09.945Z,89937.41
2022-09-09T05:43:37.164Z,89949.38
2022-09-09T05:46:08.106Z,89943.38
2022-09-09T05:48:37.588Z,89936.28
2022-09-09T05:51:05.461Z,89944.78
2022-09-09T05:53:32.341Z,89940.94
2022-09-09T05:56:01.185Z,89939.66
2022-09-09T05:58:27.895Z,89940.50
2022-09-09T06:01:03.653Z,89941.41
2022-09-09T06:03:30.627Z,89941.91
2022-09-09T06:06:06.607Z,89950.00
2022-09-09T06:08:37.992Z,89948.13
2022-09-09T06:11:07.215Z,89949.53
2022-09-09T06:13:34.218Z,89955.84
2022-09-09T06:16:01.020Z,89950.66
2022-09-09T06:18:28.100Z,89950.59
2022-09-09T06:21:03.133Z,89955.03
2022-09-09T06:23:29.815Z,89953.47
2022-09-09T06:26:23.960Z,89949.56
2022-09-09T06:28:52.278Z,89956.09
2022-09-09T06:31:21.714Z,89956.25
2022-09-09T06:33:49.751Z,89956.75
2022-09-09T06:36:22.147Z,89949.97
2022-09-09T06:38:49.097Z,89953.16
2022-09-09T06:41:19.169Z,89952.22
2022-09-09T06:43:47.028Z,89944.81
2022-09-09T06:46:20.089Z,89951.81
2022-09-09T06:48:47.122Z,89954.25
2022-09-09T06:51:21.714Z,89960.09
2022-09-09T06:53:54.451Z,89962.69
2022-09-09T06:56:33.072Z,89965.06
2022-09-09T06:59:02.129Z,89969.47
2022-09-09T07:01:31.136Z,89972.25
2022-09-09T07:03:59.028Z,89968.53
2022-09-09T07:06:30.645Z,89978.50
2022-09-09T07:09:06.201Z,89963.88
2022-09-09T07:11:38.228Z,89965.63
2022-09-09T07:14:05.089Z,89963.88
2022-09-09T07:16:31.930Z,89960.78
2022-09-09T07:18:59.105Z,89965.16
2022-09-09T07:21:27.866Z,89968.50
2022-09-09T07:23:55.503Z,89965.09
2022-09-09T07:26:25.259Z,89965.13
2022-09-09T07:28:52.104Z,89957.22
2022-09-09T07:31:31.709Z,89959.25
2022-09-09T07:33:59.924Z,89961.56
2022-09-09T07:36:35.306Z,89951.06
2022-09-09T07:39:08.720Z,89962.06
2022-09-09T07:41:50.467Z,89962.09
2022-09-09T07:44:21.920Z,89961.88
2022-09-09T07:46:48.835Z,89961.44
2022-09-09T07:49:16.550Z,89954.69
2022-09-09T07:51:46.374Z,89961.19
2022-09-09T07:54:15.078Z,89958.78
2022-09-09T07:56:43.124Z,89947.81
2022-09-09T07:59:10.173Z,89952.28
2022-09-09T08:01:44.736Z,89951.28
2022-09-09T08:04:14.823Z,89948.69
2022-09-09T08:06:43.360Z,89944.63
2022-09-09T08:09:11.686Z,89942.31
2022-09-09T08:11:39.852Z,89937.25
2022-09-09T08:14:08.709Z,89941.72
2022-09-09T08:16:39.098Z,89936.50
2022-09-09T08:19:06.387Z,89929.31
2022-09-09T08:21:33.786Z,89918.47
2022-09-09T08:24:02.330Z,89921.81
2022-09-09T08:26:35.620Z,89924.41
2022-09-09T08:29:04.632Z,89915.63
2022-09-09T08:31:37.282Z,89913.00
2022-09-09T08:34:05.532Z,89911.72
2022-09-09T08:36:38.982Z,89919.78
2022-09-09T08:39:07.983Z,89909.97
2022-09-09T08:41:37.677Z,89912.84
2022-09-09T08:44:39.012Z,89907.34
2022-09-09T08:47:19.574Z,89912.84
2022-09-09T08:50:06.706Z,89909.66
2022-09-09T08:52:53.999Z,89903.16
2022-09-09T08:55:55.951Z,89907.19
2022-09-09T08:58:34.980Z,89905.56
2022-09-09T09:01:18.619Z,89908.50
2022-09-09T09:03:59.455Z,89908.50
2022-09-09T09:06:32.393Z,89907.31
2022-09-09T09:09:10.934Z,89903.31
2022-09-09T09:11:49.254Z,89905.03
2022-09-09T09:14:24.410Z,89898.69
2022-09-09T09:16:57.886Z,89901.00
2022-09-09T09:19:25.856Z,89907.94
2022-09-09T09:22:30.278Z,89906.06
2022-09-09T09:25:02.903Z,89895.09
2022-09-09T09:27:36.459Z,89890.78
2022-09-09T09:30:26.685Z,89890.78
2022-09-09T09:33:02.508Z,89883.25
2022-09-09T09:35:29.469Z,89876.78
2022-09-09T09:40:57.428Z,89884.28
2022-09-09T09:43:35.652Z,89877.50
2022-09-09T09:46:17.289Z,89876.22
2022-09-09T09:48:44.947Z,89871.13
2022-09-09T09:51:15.622Z,89890.91
2022-09-09T09:53:42.990Z,89891.63
2022-09-09T09:56:12.757Z,89882.53
2022-09-09T09:58:39.582Z,89887.31
2022-09-09T10:01:06.516Z,89881.25
2022-09-09T10:03:36.760Z,89876.34
2022-09-09T10:06:03.764Z,89878.06
2022-09-09T10:08:34.179Z,89880.53
2022-09-09T10:11:09.949Z,89869.84
2022-09-09T10:14:01.541Z,89877.06
2022-09-09T10:16:48.654Z,89875.31
2022-09-09T10:19:20.314Z,89878.44
2022-09-09T10:22:03.930Z,89863.72
2022-09-09T10:24:54.738Z,89867.47
2022-09-09T10:27:24.546Z,89863.44
2022-09-09T10:29:56.936Z,89854.78
2022-09-09T10:32:41.723Z,89847.72
2022-09-09T10:35:13.538Z,89858.09
2022-09-09T10:38:02.772Z,89844.13
2022-09-09T10:41:01.027Z,89845.44
2022-09-09T10:43:58.538Z,89844.03
2022-09-09T10:46:36.122Z,89832.91
2022-09-09T10:49:09.523Z,89828.59
2022-09-09T10:52:16.076Z,89827.59
2022-09-09T10:54:58.069Z,89825.56
2022-09-09T10:57:27.532Z,89830.34
2022-09-09T10:59:59.388Z,89823.41
2022-09-09T11:02:30.762Z,89813.59
2022-09-09T11:05:11.831Z,89818.34
2022-09-09T11:07:51.850Z,89822.84
2022-09-09T11:10:25.111Z,89823.25
2022-09-09T11:12:55.842Z,89812.88
2022-09-09T11:15:32.897Z,89809.72
2022-09-09T11:18:02.991Z,89809.28
2022-09-09T11:20:29.745Z,89804.81
2022-09-09T11:23:14.277Z,89802.47
2022-09-09T11:25:46.843Z,89804.22
2022-09-09T11:28:38.558Z,89808.53
2022-09-09T11:31:17.279Z,89804.94
2022-09-09T11:34:02.858Z,89792.25
2022-09-09T11:36:52.620Z,89782.44
2022-09-09T11:39:56.824Z,89790.38
2022-09-09T11:42:25.524Z,89787.63
2022-09-09T11:44:53.281Z,89785.31
2022-09-09T11:47:29.854Z,89782.88
2022-09-09T11:50:16.812Z,89793.53
2022-09-09T11:52:46.503Z,89783.72
2022-09-09T11:55:25.717Z,89784.00
2022-09-09T11:57:59.981Z,89782.88
2022-09-09T12:00:47.179Z,89785.91
2022-09-09T12:03:55.497Z,89777.38
2022-09-09T12:06:42.400Z,89767.47
2022-09-09T12:09:28.856Z,89760.78
2022-09-09T12:12:12.064Z,89766.72
2022-09-09T12:14:43.140Z,89754.16
2022-09-09T12:17:23.673Z,89754.16
2022-09-09T12:20:04.644Z,89761.69
2022-09-09T12:22:51.298Z,89755.63
2022-09-09T12:25:28.180Z,89746.97
2022-09-09T12:28:16.659Z,89753.16
2022-09-09T12:31:18.637Z,89754.03
2022-09-09T12:33:46.718Z,89750.56
2022-09-09T12:36:17.963Z,89743.50
2022-09-09T12:38:46.151Z,89739.03
2022-09-09T12:41:24.499Z,89741.75
2022-09-09T12:43:52.139Z,89731.97
2022-09-09T12:46:34.148Z,89734.00
2022-09-09T12:49:00.925Z,89729.69
2022-09-09T12:51:31.421Z,89722.59
2022-09-09T12:53:59.888Z,89719.72
2022-09-09T12:56:31.005Z,89713.66
2022-09-09T12:58:59.391Z,89709.75
2022-09-09T13:01:31.955Z,89711.22
2022-09-09T13:03:59.352Z,89711.22
2022-09-09T13:06:29.321Z,89716.69
2022-09-09T13:08:59.616Z,89704.28
2022-09-09T13:11:37.497Z,89718.13
2022-09-09T13:14:04.665Z,89719.56
2022-09-09T13:16:37.635Z,89712.34
2022-09-09T13:19:18.249Z,89712.09
2022-09-09T13:21:45.112Z,89717.97
2022-09-09T13:24:26.725Z,89710.91
2022-09-09T13:27:01.638Z,89715.69
2022-09-09T13:29:29.652Z,89711.06
2022-09-09T13:32:06.292Z,89714.81
2022-09-09T13:34:35.514Z,89712.22
2022-09-09T13:37:27.265Z,89706.59
2022-09-09T13:39:55.315Z,89710.06
2022-09-09T13:42:30.708Z,89714.09
2022-09-09T13:44:59.710Z,89712.94
2022-09-09T13:47:33.709Z,89715.25
2022-09-09T13:50:19.278Z,89710.91
2022-09-09T13:52:46.021Z,89714.09
2022-09-09T13:55:12.874Z,89715.25
2022-09-09T13:57:40.027Z,89714.53
2022-09-09T14:00:08.005Z,89723.75
2022-09-09T14:02:34.929Z,89712.81
2022-09-09T14:05:02.064Z,89721.28
2022-09-09T14:07:28.904Z,89715.38
2022-09-09T14:09:55.654Z,89708.31
2022-09-09T14:12:22.741Z,89712.94
2022-09-09T14:14:49.480Z,89718.09
2022-09-09T14:17:17.781Z,89719.09
2022-09-09T14:19:45.054Z,89708.56
2022-09-09T14:22:11.801Z,89714.03
2022-09-09T14:24:39.224Z,89715.03
2022-09-09T14:27:06.169Z,89719.06
2022-09-09T14:29:33.051Z,89723.97
2022-09-09T15:01:24.669Z,89725.66
2022-09-09T15:03:54.113Z,89721.22
2022-09-09T15:06:22.037Z,89720.91
2022-09-09T15:08:49.071Z,89725.03
2022-09-09T15:11:16.332Z,89726.03
2022-09-09T15:13:44.467Z,89730.59
2022-09-09T15:16:19.489Z,89727.41
2022-09-09T15:18:48.092Z,89724.50
2022-09-09T15:21:18.059Z,89728.53
2022-09-09T15:23:44.776Z,89739.13
2022-09-09T15:26:12.667Z,89726.22
2022-09-09T15:28:39.883Z,89730.97
2022-09-09T15:33:34.565Z,89730.75
2022-09-09T15:36:01.420Z,89739.88
2022-09-09T15:38:28.113Z,89734.66
2022-09-09T15:40:56.188Z,89735.66
2022-09-09T15:43:23.181Z,89735.88
2022-09-09T15:45:58.650Z,89736.28
2022-09-09T15:48:32.576Z,89731.78
2022-09-09T15:51:19.509Z,89734.22
2022-09-09T15:53:59.502Z,89725.66
2022-09-09T15:56:27.916Z,89733.53
2022-09-09T15:58:56.424Z,89726.47
2022-09-09T16:01:23.154Z,89726.28
2022-09-09T16:03:50.242Z,89728.00
2022-09-09T16:06:20.159Z,89729.84
2022-09-09T16:08:47.089Z,89729.66
2022-09-09T16:11:16.678Z,89729.50
2022-09-09T16:13:49.064Z,89729.34
2022-09-09T16:16:21.178Z,89720.81
2022-09-09T16:18:53.492Z,89724.69
2022-09-09T16:21:29.051Z,89731.41
2022-09-09T16:23:57.567Z,89721.78
2022-09-09T16:26:44.400Z,89729.41
2022-09-09T16:29:11.153Z,89725.41
2022-09-09T16:31:38.286Z,89735.03
2022-09-09T16:34:05.676Z,89729.56
2022-09-09T16:36:35.540Z,89734.31
2022-09-09T16:39:05.629Z,89727.41
2022-09-09T16:41:34.079Z,89726.38
2022-09-09T16:44:03.679Z,89735.84
2022-09-09T16:46:32.288Z,89732.19
2022-09-09T16:49:01.236Z,89736.22
2022-09-09T16:51:30.911Z,89735.34
2022-09-09T16:54:00.640Z,89734.59
2022-09-09T16:56:28.906Z,89741.34
2022-09-09T16:58:58.098Z,89737.19
2022-09-09T17:01:26.182Z,89742.44
2022-09-09T17:04:01.703Z,89749.19
2022-09-09T17:06:30.213Z,89748.47
2022-09-09T17:08:59.130Z,89747.59
2022-09-09T17:11:26.741Z,89744.69
2022-09-09T17:13:54.621Z,89754.16
2022-09-09T17:16:23.572Z,89750.53
2022-09-09T17:18:54.205Z,89749.81
2022-09-09T17:21:24.164Z,89757.97
2022-09-09T17:23:51.193Z,89761.81
2022-09-09T17:26:20.957Z,89764.56
2022-09-09T17:28:47.848Z,89763.13
2022-09-09T17:31:16.930Z,89764.41
2022-09-09T17:33:46.878Z,89772.38
2022-09-09T17:36:22.519Z,89763.31
2022-09-09T17:38:49.725Z,89768.06
2022-09-09T17:41:22.001Z,89774.78
2022-09-09T17:43:49.787Z,89767.88
2022-09-09T17:46:21.995Z,89768.44
2022-09-09T17:48:50.506Z,89771.69
2022-09-09T17:51:20.873Z,89771.53
2022-09-09T17:53:50.827Z,89774.41
2022-09-09T17:56:20.889Z,89777.13
2022-09-09T17:58:48.478Z,89784.06
2022-09-09T18:01:19.559Z,89786.44
2022-09-09T18:03:47.841Z,89788.09
2022-09-09T18:06:22.488Z,89787.44
2022-09-09T18:08:57.570Z,89798.38
2022-09-09T18:11:27.232Z,89790.94
2022-09-09T18:13:56.991Z,89801.53
2022-09-09T18:16:25.488Z,89804.06
2022-09-09T18:18:52.459Z,89801.56
2022-09-09T18:21:20.269Z,89801.75
2022-09-09T18:23:47.882Z,89804.69
2022-09-09T18:26:17.702Z,89805.06
2022-09-09T18:28:49.246Z,89808.72
2022-09-09T18:31:18.026Z,89806.53
2022-09-09T18:33:47.690Z,89813.81
2022-09-09T18:36:20.420Z,89807.81
2022-09-09T18:38:47.842Z,89814.91
2022-09-09T18:41:18.563Z,89813.50
2022-09-09T18:43:45.829Z,89812.41
2022-09-09T18:46:12.933Z,89820.78
2022-09-09T18:48:40.068Z,89815.53
2022-09-09T18:51:08.661Z,89816.97
2022-09-09T18:53:36.789Z,89812.47
2022-09-09T18:56:06.523Z,89811.75
2022-09-09T18:58:34.435Z,89813.03
2022-09-09T19:01:02.678Z,89811.75
2022-09-09T19:03:30.886Z,89817.03
2022-09-09T19:06:09.857Z,89809.41
2022-09-09T19:08:38.692Z,89813.41
2022-09-09T19:11:07.864Z,89809.22
2022-09-09T19:13:35.742Z,89805.78
2022-09-09T19:16:14.130Z,89807.22
2022-09-09T19:18:41.843Z,89803.44
2022-09-09T19:21:20.871Z,89800.53
2022-09-09T19:24:08.607Z,89799.06
2022-09-09T19:26:38.677Z,89806.16
2022-09-09T19:29:05.420Z,89801.09
2022-09-09T19:31:32.140Z,89803.44
2022-09-09T19:33:58.927Z,89796.19
2022-09-09T19:36:26.716Z,89803.78
2022-09-09T19:38:55.093Z,89801.97
2022-09-09T19:41:24.063Z,89797.47
2022-09-09T19:43:51.432Z,89792.94
2022-09-09T19:46:18.410Z,89791.13
2022-09-09T19:48:46.309Z,89798.00
2022-09-09T19:51:17.441Z,89798.34
2022-09-09T19:53:47.446Z,89792.56
2022-09-09T19:56:14.752Z,89793.28
2022-09-09T19:58:41.893Z,89796.56
2022-09-09T20:01:14.931Z,89792.94
2022-09-09T20:03:43.129Z,89792.75
2022-09-09T20:06:12.569Z,89794.75
2022-09-09T20:08:40.309Z,89800.88
2022-09-09T20:11:08.343Z,89799.03
2022-09-09T20:13:37.243Z,89804.81
2022-09-09T20:16:09.774Z,89800.47
2022-09-09T20:18:38.850Z,89802.28
2022-09-09T20:21:12.511Z,89803.72
2022-09-09T20:23:39.811Z,89801.94
2022-09-09T20:26:09.325Z,89802.28
2022-09-09T20:28:38.346Z,89802.47
2022-09-09T20:31:07.283Z,89801.19
2022-09-09T20:33:34.951Z,89796.31
2022-09-09T20:36:13.383Z,89797.56
2022-09-09T20:38:50.914Z,89797.22
2022-09-09T20:41:19.373Z,89797.56
2022-09-09T20:43:47.462Z,89791.03
2022-09-09T20:46:14.230Z,89792.13
2022-09-09T20:48:41.096Z,89792.13
2022-09-09T20:51:08.417Z,89788.47
2022-09-09T20:53:35.132Z,89788.28
2022-09-09T20:56:03.642Z,89785.22
2022-09-09T20:58:34.436Z,89789.00
2022-09-09T21:01:02.270Z,89785.91
2022-09-09T21:03:35.187Z,89790.22
2022-09-09T21:06:02.060Z,89792.75
2022-09-09T21:08:29.365Z,89793.31
2022-09-09T21:10:56.944Z,89797.28
2022-09-09T21:13:24.612Z,89801.06
2022-09-09T21:15:52.178Z,89800.88
2022-09-09T21:18:19.496Z,89803.06
2022-09-09T21:20:47.008Z,89798.72
2022-09-09T21:23:14.714Z,89804.69
2022-09-09T21:25:42.378Z,89799.25
2022-09-09T21:28:10.073Z,89799.44
2022-09-09T21:30:43.876Z,89801.81
2022-09-09T21:33:11.222Z,89806.88
2022-09-09T21:35:40.607Z,89796.03
2022-09-09T21:38:08.876Z,89798.91
2022-09-09T21:40:39.357Z,89795.63
2022-09-09T21:43:06.330Z,89796.53
2022-09-09T21:45:36.961Z,89795.78
2022-09-09T21:48:05.773Z,89793.34
2022-09-09T21:50:39.034Z,89798.75
2022-09-09T21:53:05.764Z,89791.16
2022-09-09T21:55:37.153Z,89794.19
2022-09-09T21:58:05.183Z,89793.47
2022-09-09T22:00:32.797Z,89791.47
2022-09-09T22:03:00.877Z,89789.50
2022-09-09T22:05:27.623Z,89794.91
2022-09-09T22:07:54.486Z,89790.97
2022-09-09T22:10:22.403Z,89788.97
2022-09-09T22:12:49.841Z,89793.88
2022-09-09T22:15:16.739Z,89791.16
2022-09-09T22:17:43.556Z,89790.75
2022-09-09T22:20:10.817Z,89786.06
2022-09-09T22:22:37.997Z,89794.41
2022-09-09T22:25:06.691Z,89781.34
2022-09-09T22:27:33.730Z,89791.84
2022-09-09T22:30:00.515Z,89784.56
2022-09-09T22:32:27.420Z,89772.94
2022-09-09T22:34:54.248Z,89779.63
2022-09-09T22:37:21.081Z,89786.25
2022-09-09T22:39:47.955Z,89777.13
2022-09-09T22:42:14.719Z,89776.41
2022-09-09T22:44:41.494Z,89777.13
2022-09-09T22:47:08.358Z,89771.69
2022-09-09T22:49:37.065Z,89763.03
2022-09-09T22:52:04.338Z,89769.00
2022-09-09T22:54:31.210Z,89773.47
2022-09-09T22:56:57.950Z,89780.88
2022-09-09T22:59:24.740Z,89774.19
2022-09-09T23:01:51.748Z,89783.94
2022-09-09T23:04:18.559Z,89784.78
2022-09-09T23:06:45.421Z,89783.84
2022-09-09T23:09:12.474Z,89780.22
2022-09-09T23:11:39.935Z,89782.94
2022-09-09T23:14:10.315Z,89783.47
2022-09-09T23:16:43.611Z,89772.94
2022-09-09T23:19:13.316Z,89775.47
2022-09-09T23:21:40.202Z,89775.81
2022-09-09T23:24:08.053Z,89773.63
2022-09-09T23:26:35.164Z,89775.06
2022-09-09T23:29:02.193Z,89767.28
2022-09-09T23:31:32.691Z,89771.44
2022-09-09T23:34:01.012Z,89777.59
2022-09-09T23:36:28.984Z,89770.53
2022-09-09T23:38:57.799Z,89767.03
2022-09-09T23:41:25.099Z,89771.31
2022-09-09T23:43:53.261Z,89766.97
2022-09-09T23:46:26.699Z,89770.22
2022-09-09T23:48:53.864Z,89761.19
2022-09-09T23:51:22.632Z,89764.72
2022-09-09T23:53:51.551Z,89764.66
2022-09-09T23:56:26.840Z,89758.88
2022-09-09T23:58:53.728Z,89753.09
